createdAt,value
2023-03-12T00:00:43.812Z,6.17
2023-03-12T00:05:46.268Z,5.89
2023-03-12T00:10:48.214Z,5.83
2023-03-12T00:15:50.221Z,5.86
2023-03-12T00:20:55.977Z,5.99
2023-03-12T00:26:02.586Z,6.00
2023-03-12T00:31:17.841Z,5.78
2023-03-12T00:36:23.938Z,5.70
2023-03-12T00:41:26.150Z,6.06
2023-03-12T00:46:27.924Z,5.70
2023-03-12T00:51:29.646Z,5.65
2023-03-12T00:56:33.121Z,5.51
2023-03-12T01:01:34.997Z,5.60
2023-03-12T01:06:36.615Z,5.75
2023-03-12T01:11:39.171Z,5.69
2023-03-12T01:16:40.967Z,5.58
2023-03-12T01:21:42.738Z,5.58
2023-03-12T01:26:44.451Z,5.63
2023-03-12T01:31:46.229Z,5.69
2023-03-12T01:36:48.242Z,5.46
2023-03-12T01:41:50.134Z,5.50
2023-03-12T01:46:51.829Z,5.57
2023-03-12T01:51:59.149Z,5.49
2023-03-12T01:57:03.343Z,5.51
2023-03-12T02:02:06.619Z,5.41
2023-03-12T02:07:17.540Z,5.22
2023-03-12T02:12:19.482Z,5.31
2023-03-12T02:17:21.368Z,5.36
2023-03-12T02:22:23.941Z,5.42
2023-03-12T02:27:25.973Z,5.31
2023-03-12T02:32:33.234Z,5.12
2023-03-12T02:37:35.079Z,5.14
2023-03-12T02:42:37.890Z,5.14
2023-03-12T02:47:39.774Z,4.80
2023-03-12T02:52:41.711Z,4.76
2023-03-12T02:57:44.041Z,4.96
2023-03-12T03:02:45.968Z,4.88
2023-03-12T03:07:47.936Z,4.94
2023-03-12T03:12:50.165Z,4.85
2023-03-12T03:17:51.907Z,4.47
2023-03-12T03:22:53.809Z,4.42
2023-03-12T03:27:56.017Z,4.55
2023-03-12T03:32:57.861Z,4.79
2023-03-12T03:37:59.842Z,4.48
2023-03-12T03:43:01.922Z,4.51
2023-03-12T03:48:04.149Z,4.23
2023-03-12T03:53:07.442Z,4.33
2023-03-12T03:58:09.195Z,4.28
2023-03-12T04:03:11.219Z,4.24
2023-03-12T04:08:13.843Z,4.13
2023-03-12T04:13:17.243Z,4.15
2023-03-12T04:18:20.119Z,4.17
2023-03-12T04:23:21.823Z,4.26
2023-03-12T04:28:23.597Z,3.95
2023-03-12T04:33:27.278Z,3.98
2023-03-12T04:38:29.112Z,4.04
2023-03-12T04:43:31.885Z,3.96
2023-03-12T04:48:34.869Z,3.88
2023-03-12T04:53:37.841Z,3.94
2023-03-12T04:58:39.690Z,3.89
2023-03-12T05:03:41.421Z,4.33
2023-03-12T05:08:43.353Z,3.87
2023-03-12T05:13:45.349Z,3.72
2023-03-12T05:18:47.729Z,3.90
2023-03-12T05:23:49.533Z,3.59
2023-03-12T05:28:52.183Z,3.63
2023-03-12T05:33:54.788Z,3.69
2023-03-12T05:38:56.862Z,3.61
2023-03-12T05:43:59.142Z,3.51
2023-03-12T05:49:01.013Z,3.41
2023-03-12T05:54:02.828Z,3.66
2023-03-12T05:59:04.621Z,3.58
2023-03-12T06:04:06.519Z,3.61
2023-03-12T06:09:08.238Z,3.69
2023-03-12T06:14:09.978Z,3.83
2023-03-12T06:19:14.250Z,3.70
2023-03-12T06:24:15.998Z,3.82
2023-03-12T06:29:17.684Z,3.71
2023-03-12T06:34:19.575Z,3.96
2023-03-12T06:39:21.520Z,3.95
2023-03-12T06:44:23.400Z,4.03
2023-03-12T06:49:25.374Z,4.00
2023-03-12T06:54:27.069Z,4.27
2023-03-12T06:59:29.438Z,3.94
2023-03-12T07:04:31.161Z,4.05
2023-03-12T07:09:32.917Z,4.21
2023-03-12T07:14:34.756Z,3.81
2023-03-12T07:19:36.462Z,4.03
2023-03-12T07:24:38.244Z,4.13
2023-03-12T07:29:40.079Z,4.30
2023-03-12T07:34:42.030Z,4.17
2023-03-12T07:39:44.597Z,4.65
2023-03-12T07:44:46.450Z,4.59
2023-03-12T07:49:48.452Z,4.66
2023-03-12T07:54:52.685Z,4.67
2023-03-12T07:59:54.707Z,4.66
2023-03-12T08:04:56.730Z,4.85
2023-03-12T08:10:02.888Z,4.72
2023-03-12T08:15:09.038Z,4.86
2023-03-12T08:20:11.536Z,5.02
2023-03-12T08:25:13.324Z,5.22
2023-03-12T08:30:15.139Z,5.45
2023-03-12T08:35:16.820Z,5.38
2023-03-12T08:40:18.883Z,5.46
2023-03-12T08:45:20.754Z,5.56
2023-03-12T08:50:23.012Z,5.55
2023-03-12T08:55:26.306Z,5.83
2023-03-12T09:00:28.170Z,5.79
2023-03-12T09:05:30.176Z,6.01
2023-03-12T09:10:32.025Z,6.14
2023-03-12T09:15:34.016Z,6.18
2023-03-12T09:20:35.660Z,6.23
2023-03-12T09:25:37.309Z,6.29
2023-03-12T09:30:39.261Z,6.05
2023-03-12T09:35:41.912Z,6.20
2023-03-12T09:40:47.252Z,6.39
2023-03-12T09:45:50.065Z,6.43
2023-03-12T09:50:52.288Z,6.59
2023-03-12T09:55:57.521Z,6.64
2023-03-12T10:01:13.523Z,6.60
2023-03-12T10:06:20.578Z,6.60
2023-03-12T10:11:32.286Z,6.40
2023-03-12T10:16:54.219Z,6.70
2023-03-12T10:22:08.231Z,6.89
2023-03-12T10:27:14.916Z,6.95
2023-03-12T10:32:22.014Z,6.96
2023-03-12T10:37:34.080Z,7.02
2023-03-12T10:42:35.737Z,7.20
2023-03-12T10:47:38.257Z,7.41
2023-03-12T10:52:39.984Z,7.46
2023-03-12T10:57:42.580Z,7.59
2023-03-12T11:02:48.228Z,7.42
2023-03-12T11:07:50.280Z,7.50
2023-03-12T11:13:04.852Z,7.67
2023-03-12T11:18:36.308Z,7.64
2023-03-12T11:23:44.593Z,7.79
2023-03-12T11:29:03.163Z,7.97
2023-03-12T11:34:18.418Z,7.99
2023-03-12T11:39:38.725Z,8.15
2023-03-12T11:44:58.709Z,8.33
2023-03-12T11:50:15.470Z,8.47
2023-03-12T11:55:36.987Z,8.33
2023-03-12T12:00:51.241Z,8.67
2023-03-12T12:06:06.129Z,8.86
2023-03-12T12:11:26.042Z,8.83
2023-03-12T12:16:49.110Z,8.88
2023-03-12T12:22:05.910Z,8.77
2023-03-12T12:27:24.691Z,8.92
2023-03-12T12:32:48.297Z,9.21
2023-03-12T12:37:56.518Z,8.93
2023-03-12T12:43:22.902Z,8.84
2023-03-12T12:48:34.265Z,8.84
2023-03-12T12:53:51.986Z,8.91
2023-03-12T12:59:01.826Z,8.65
2023-03-12T13:04:13.764Z,8.66
2023-03-12T13:09:21.374Z,8.63
2023-03-12T13:14:36.748Z,8.78
2023-03-12T13:19:51.964Z,9.03
2023-03-12T13:25:08.691Z,9.11
2023-03-12T13:30:35.015Z,9.00
2023-03-12T13:35:39.128Z,9.25
2023-03-12T13:41:00.963Z,9.29
2023-03-12T13:46:11.226Z,9.13
2023-03-12T13:51:17.428Z,9.14
2023-03-12T13:56:25.524Z,9.09
2023-03-12T14:01:31.973Z,9.15
2023-03-12T14:06:58.100Z,9.40
2023-03-12T14:12:09.254Z,9.54
2023-03-12T14:17:20.835Z,9.49
2023-03-12T14:22:24.719Z,9.69
2023-03-12T14:27:30.875Z,9.88
2023-03-12T14:32:34.712Z,9.90
2023-03-12T14:37:43.250Z,9.92
2023-03-12T14:42:45.647Z,10.10
2023-03-12T14:47:53.494Z,10.02
2023-03-12T14:53:10.703Z,9.99
2023-03-12T14:58:20.632Z,10.09
2023-03-12T15:03:22.870Z,9.96
2023-03-12T15:08:25.323Z,9.93
2023-03-12T15:13:29.375Z,10.03
2023-03-12T15:18:33.328Z,9.62
2023-03-12T15:23:37.992Z,9.49
2023-03-12T15:28:40.817Z,9.71
2023-03-12T15:33:45.160Z,9.52
2023-03-12T15:39:01.180Z,9.40
2023-03-12T15:44:03.634Z,9.44
2023-03-12T15:49:06.190Z,9.34
2023-03-12T15:54:14.803Z,9.25
2023-03-12T15:59:17.251Z,9.06
2023-03-12T16:04:19.977Z,9.00
2023-03-12T16:09:27.669Z,8.81
2023-03-12T16:14:36.476Z,8.73
2023-03-12T16:19:39.008Z,8.71
2023-03-12T16:24:41.116Z,8.54
2023-03-12T16:29:44.063Z,8.54
2023-03-12T16:34:46.506Z,8.47
2023-03-12T16:39:49.092Z,8.38
2023-03-12T16:44:51.497Z,8.31
2023-03-12T16:49:53.802Z,8.15
2023-03-12T16:54:57.477Z,8.16
2023-03-12T17:00:01.970Z,8.11
2023-03-12T17:05:05.410Z,8.05
2023-03-12T17:10:10.623Z,7.96
2023-03-12T17:15:21.073Z,7.85
2023-03-12T17:20:25.054Z,7.75
2023-03-12T17:25:31.029Z,7.73
2023-03-12T17:30:37.790Z,7.69
2023-03-12T17:35:41.561Z,7.70
2023-03-12T17:40:44.872Z,7.61
2023-03-12T17:45:47.472Z,7.56
2023-03-12T17:50:51.525Z,7.54
2023-03-12T17:55:53.702Z,7.29
2023-03-12T18:00:59.187Z,7.36
2023-03-12T18:06:02.323Z,7.20
2023-03-12T18:11:05.215Z,7.27
2023-03-12T18:16:08.024Z,7.26
2023-03-12T18:21:10.915Z,7.03
2023-03-12T18:26:13.763Z,7.06
2023-03-12T18:31:16.581Z,6.90
2023-03-12T18:36:21.759Z,6.96
2023-03-12T18:41:30.518Z,6.97
2023-03-12T18:46:35.779Z,6.72
2023-03-12T18:51:38.078Z,6.58
2023-03-12T18:56:41.442Z,6.57
2023-03-12T19:01:44.559Z,6.56
2023-03-12T19:06:51.631Z,6.43
2023-03-12T19:11:54.212Z,6.33
2023-03-12T19:16:58.292Z,6.28
2023-03-12T19:22:00.874Z,6.22
2023-03-12T19:27:03.601Z,6.08
2023-03-12T19:32:06.504Z,6.06
2023-03-12T19:37:08.839Z,5.97
2023-03-12T19:42:12.367Z,6.26
2023-03-12T19:47:18.272Z,6.38
2023-03-12T19:52:21.217Z,5.99
2023-03-12T19:57:24.235Z,6.08
2023-03-12T20:02:32.356Z,5.99
2023-03-12T20:07:35.977Z,6.06
2023-03-12T20:12:39.496Z,6.03
2023-03-12T20:17:43.040Z,5.86
2023-03-12T20:22:45.721Z,5.91
2023-03-12T20:27:48.703Z,5.88
2023-03-12T20:32:53.118Z,5.59
2023-03-12T20:37:55.983Z,5.60
2023-03-12T20:42:58.202Z,5.55
2023-03-12T20:48:01.969Z,5.40
2023-03-12T20:53:04.874Z,5.09
2023-03-12T20:58:08.133Z,5.06
2023-03-12T21:03:15.048Z,5.44
2023-03-12T21:08:17.880Z,5.24
2023-03-12T21:13:22.228Z,5.80
2023-03-12T21:18:25.055Z,5.40
2023-03-12T21:23:29.348Z,5.72
2023-03-12T21:28:33.158Z,5.42
2023-03-12T21:33:35.541Z,5.57
2023-03-12T21:38:39.326Z,5.49
2023-03-12T21:43:41.856Z,5.36
2023-03-12T21:48:45.883Z,5.29
2023-03-12T21:53:47.812Z,5.26
2023-03-12T21:58:49.516Z,5.38
2023-03-12T22:03:51.165Z,4.97
2023-03-12T22:08:52.858Z,5.42
2023-03-12T22:13:54.538Z,4.95
2023-03-12T22:18:57.032Z,5.00
2023-03-12T22:24:01.402Z,4.65
2023-03-12T22:29:03.465Z,4.82
2023-03-12T22:34:05.269Z,4.73
2023-03-12T22:39:06.896Z,4.64
2023-03-12T22:44:09.311Z,4.31
2023-03-12T22:49:11.021Z,4.46
2023-03-12T22:54:12.683Z,4.42
2023-03-12T22:59:14.346Z,4.69
2023-03-12T23:04:16.018Z,4.63
2023-03-12T23:09:17.661Z,4.57
2023-03-12T23:14:20.006Z,4.59
2023-03-12T23:19:21.933Z,4.42
2023-03-12T23:24:23.541Z,4.41
2023-03-12T23:29:25.395Z,4.41
2023-03-12T23:34:27.606Z,4.34
2023-03-12T23:39:30.935Z,4.09
2023-03-12T23:44:33.144Z,4.12
2023-03-12T23:49:34.829Z,4.59
2023-03-12T23:54:36.446Z,4.17
2023-03-12T23:59:38.217Z,4.01
